1978 29S:30S:ALBY (1978086S14115)


On this page: IBTrACS data - Map and Plots - Positions - Intensities - Original source data

Summary

Start Mar 27
End Apr 5
Basin SI
LMI 120 kt
Sources jtwc_sh
bom
td9636
neumann
ds824_au
ds824_sh
ds824_sh
jtwc_sh
In WMO? Yes
Previous storm 1978 28S (SI)
Previous in basin 1978 28S (SI)
Concurrent storms 1978 27S (SI)
1978 29S (SI)
1978 31S (SI)
1978 32P (SP)
Next in basin 1978 31S (SI)
Next storm 1978 31S (SI)

top of page IBTrACS Data: File Access

No storm imagery available

top of page Plots:

Map of storm track will not appear if FTP is down
Time series of cyclone Maximum Sustained Wind will not appear if FTP is down
Time series of cyclone Minimum Central Pressure will not appear if FTP is down

top of page Track Data:Position

jtwc_sh bom td9636 neumann ds824_au ds824_sh ds824_sh jtwc_sh
Date Lat Lon Lat Lon Lat Lon Lat Lon Lat Lon Lat Lon Lat Lon Lat Lon
1978-03-27 00:00:00 -13.7 115.0 -13.7 115.0 -13.7 115.0 -13.7 115.0 -13.7 115.0
1978-03-27 06:00:00 -13.9 114.8 -13.9 114.9 -13.9 114.8 -13.9 114.9 -13.9 114.9 -13.9 114.8
1978-03-27 12:00:00 -14.1 114.5 -14.1 114.6 -14.1 114.5 -14.1 114.5 -14.1 114.6 -14.1 114.5
1978-03-27 18:00:00 -14.3 114.1 -14.4 114.0 -14.4 114.1 -14.5 113.9 -14.4 114.0 -14.3 114.1
1978-03-28 00:00:00 -14.6 113.7 -14.6 113.7 -14.6 113.7 -14.6 113.7 -14.6 113.7 -14.6 113.7
1978-03-28 06:00:00 -14.7 113.2 -14.7 113.4 -14.7 113.2 -14.7 113.3 -14.7 113.4 -14.7 113.2
1978-03-28 12:00:00 -14.9 112.8 -14.9 112.9 -14.9 112.8 -14.9 112.8 -14.9 112.9 -14.9 112.8
1978-03-28 18:00:00 -15.3 112.4 -15.1 112.5 -15.3 112.5 -15.2 112.4 -15.1 112.5 -15.3 112.4
1978-03-29 00:00:00 -15.8 112.2 -15.7 112.2 -15.8 112.2 -15.8 112.2 -15.7 112.2 -15.8 112.2
1978-03-29 06:00:00 -16.2 112.1 -16.1 112.1 -16.2 112.0 -16.2 112.1 -16.1 112.1 -16.2 112.1
1978-03-29 12:00:00 -16.7 111.9 -16.6 111.9 -16.7 111.9 -16.7 111.9 -16.6 111.9 -16.7 111.9
1978-03-29 18:00:00 -17.1 111.8 -17.1 111.7 -17.2 111.8 -17.2 111.7 -17.1 111.7 -17.1 111.8
1978-03-30 00:00:00 -17.6 111.6 -17.5 111.6 -17.6 111.6 -17.6 111.6 -17.5 111.6 -17.6 111.6
1978-03-30 06:00:00 -18.0 111.4 -17.9 111.4 -18.0 111.4 -18.0 111.4 -17.9 111.4 -18.0 111.4
1978-03-30 12:00:00 -18.3 111.1 -18.3 111.2 -18.3 111.1 -18.3 111.1 -18.3 111.2 -18.3 111.1
1978-03-30 18:00:00 -18.6 110.6 -18.5 110.7 -18.6 110.6 -18.6 110.6 -18.5 110.7 -18.6 110.6
1978-03-31 00:00:00 -18.8 110.1 -18.8 110.2 -18.8 110.1 -18.8 110.1 -18.8 110.2 -18.8 110.1
1978-03-31 06:00:00 -19.0 109.7 -19.0 109.8 -19.0 109.7 -19.0 109.7 -19.0 109.8 -19.0 109.7
1978-03-31 12:00:00 -19.2 109.3 -19.2 109.4 -19.2 109.3 -19.2 109.3 -19.2 109.4 -19.2 109.3
1978-03-31 18:00:00 -19.5 108.9 -19.4 108.8 -19.5 108.9 -19.5 108.7 -19.4 108.8 -19.5 108.9
1978-04-01 00:00:00 -19.8 108.4 -19.8 108.4 -19.8 108.4 -19.9 108.3 -19.8 108.3 -19.8 108.4
1978-04-01 06:00:00 -20.2 107.7 -20.2 107.6 -20.2 107.6 -20.2 107.7
1978-04-01 12:00:00 -20.5 107.0 -20.6 106.8 -20.6 106.8 -20.5 107.0 -20.6 106.8 -20.6 106.8
1978-04-01 18:00:00 -20.9 106.3 -21.0 106.2 -21.0 106.2 -20.9 106.3 -21.0 106.2 -21.0 106.2
1978-04-02 00:00:00 -21.3 105.9 -21.4 105.9 -21.4 105.9 -21.3 105.9 -21.4 105.9 -21.4 105.9
jtwc_sh bom td9636 neumann ds824_au ds824_sh ds824_sh jtwc_sh
1978-04-02 06:00:00 -21.6 105.8 -21.6 105.9 -21.7 105.8 -21.6 105.8 -21.7 105.9 -21.7 105.9
1978-04-02 12:00:00 -21.9 106.0 -22.0 106.0 -22.0 106.0 -21.9 106.0 -22.0 106.0 -22.0 106.0
1978-04-02 18:00:00 -22.4 106.2 -22.6 106.1 -22.6 106.2 -22.5 106.2 -22.6 106.2 -22.6 106.2
1978-04-03 00:00:00 -23.4 106.4 -23.6 106.4 -23.6 106.4 -23.4 106.4 -23.6 106.4 -23.6 106.4
1978-04-03 06:00:00 -24.5 106.6 -24.7 106.7 -24.7 106.7 -24.5 106.6 -24.8 106.8 -24.8 106.8
1978-04-03 12:00:00 -25.9 107.2 -26.2 107.3 -26.2 107.3 -25.9 107.2 -26.2 107.3 -26.2 107.3
1978-04-03 18:00:00 -27.4 108.0 -27.8 108.1 -27.7 108.2 -27.4 108.0 -27.9 108.2 -27.9 108.2
1978-04-04 00:00:00 -29.5 109.3 -29.9 109.6 -29.9 109.6 -29.5 109.3 -29.9 109.6 -29.9 109.6
1978-04-04 06:00:00 -31.5 110.9 -32.4 112.0 -32.1 111.5 -31.5 110.9 -32.3 111.8 -32.3 111.8
1978-04-04 12:00:00 -34.6 114.2 -35.2 115.0 -35.2 115.0 -34.6 114.3 -35.2 115.0 -35.2 115.0
1978-04-04 18:00:00 -37.6 119.7 -38.2 120.7 -37.7 119.7
1978-04-05 00:00:00 -41.2 125.4 -41.8 126.3

top of pageTrack Data:Intensity

jtwc_sh bom td9636 neumann ds824_au ds824_sh ds824_sh jtwc_sh
Date Wind Pres Wind Pres Wind Pres Wind Pres Wind Pres Wind Pres Wind Pres Wind Pres
1978-03-27 00:00:00 25. 1006. 25. 15. 1006. 25.
1978-03-27 06:00:00 25. 1005. 25. 20. 1005. 20. 1005. 25.
1978-03-27 12:00:00 25. 1004. 25. 20. 1004. 20. 1004. 25.
1978-03-27 18:00:00 25. 1004. 25. 20. 1004. 20. 1004. 25.
1978-03-28 00:00:00 30. 1002. 30. 25. 1002. 25. 1002. 30.
1978-03-28 06:00:00 30. 1000. 30. 30. 1000. 30. 1000. 30.
1978-03-28 12:00:00 30. 998. 30. 35. 998. 35. 998. 30.
1978-03-28 18:00:00 30. 997. 30. 35. 997. 35. 997. 30.
1978-03-29 00:00:00 35. 997. 35. 35. 997. 35. 997. 35.
1978-03-29 06:00:00 35. 995. 35. 40. 995. 40. 995. 35.
1978-03-29 12:00:00 40. 994. 40. 40. 994. 40. 994. 40.
1978-03-29 18:00:00 40. 992. 40. 45. 992. 45. 992. 40.
1978-03-30 00:00:00 45. 990. 45. 45. 990. 45. 990. 45.
1978-03-30 06:00:00 55. 984. 45. 55. 984. 55. 984. 55.
1978-03-30 12:00:00 65. 980. 65. 60. 980. 60. 980. 65.
1978-03-30 18:00:00 70. 974. 65. 70. 974. 65. 974. 70.
1978-03-31 00:00:00 75. 970. 75. 75. 970. 70. 970. 75.
1978-03-31 06:00:00 85. 965. 75. 80. 965. 80. 965. 85.
1978-03-31 12:00:00 90. 960. 90. 85. 960. 85. 960. 90.
1978-03-31 18:00:00 95. 955. 90. 95. 955. 90. 955. 95.
1978-04-01 00:00:00 100. 950. 100. 100. 950. 90. 955. 100.
1978-04-01 06:00:00 945. 100. 105. 945. 100. 945.
1978-04-01 12:00:00 940. 110. 110. 940. 105. 940. 110. 110.
1978-04-01 18:00:00 934. 110. 115. 934. 110. 934. 115. 115.
1978-04-02 00:00:00 930. 115. 120. 930. 115. 930. 115. 115.
jtwc_sh bom td9636 neumann ds824_au ds824_sh ds824_sh jtwc_sh
1978-04-02 06:00:00 932. 115. 120. 932. 110. 932. 115. 115.
1978-04-02 12:00:00 935. 115. 115. 935. 110. 935. 115. 115.
1978-04-02 18:00:00 937. 115. 115. 937. 105. 937. 115. 115.
1978-04-03 00:00:00 940. 110. 110. 940. 105. 940. 110. 110.
1978-04-03 06:00:00 944. 110. 105. 944. 100. 944. 105. 105.
1978-04-03 12:00:00 950. 100. 100. 950. 95. 950. 100. 100.
1978-04-03 18:00:00 955. 100. 95. 955. 90. 955. 95. 95.
1978-04-04 00:00:00 960. 90. 85. 960. 85. 960. 90. 90.
1978-04-04 06:00:00 90. 80. 965. 85. 85.
1978-04-04 12:00:00 970. 75. 75. 970. 70. 970. 75. 75.
1978-04-04 18:00:00 989. 50. 989. 50. 989.
1978-04-05 00:00:00 1000. 30. 1000.

top of page Links to source data

Source Source file Format
jtwc_sh bsh291978.txt ATCF
bom Newcyclonedatabase-08repair.csv:Line=10543:ALBY CSV file (from Excel file)
td9636 cons_worldwide_trop_cyclone_18710101-19891231-006:Line=10640 TD 9636
neumann tracks.sh:Storm=532:ALBY:BSH9978:BM490 HURDAT
ds824_au aus_area.dat:575:ALBY HURDAT
ds824_sh s_hem.dat:1375:29S HURDAT
ds824_sh s_hem.dat:1376:30S HURDAT
jtwc_sh bsh301978.txt ATCF